sensor_id;sensor_type;location;lat;lon;timestamp;P1;durP1;ratioP1;P2;durP2;ratioP2
27412;SDS011;14871;52.702;5.230;2022-08-19T00:01:18;6.50;;;4.53;;
27412;SDS011;14871;52.702;5.230;2022-08-19T00:03:43;7.22;;;5.25;;
27412;SDS011;14871;52.702;5.230;2022-08-19T00:06:09;6.90;;;5.07;;
27412;SDS011;14871;52.702;5.230;2022-08-19T00:08:35;7.63;;;5.55;;
27412;SDS011;14871;52.702;5.230;2022-08-19T00:11:01;10.43;;;6.60;;
27412;SDS011;14871;52.702;5.230;2022-08-19T00:13:26;11.18;;;6.45;;
27412;SDS011;14871;52.702;5.230;2022-08-19T00:15:53;8.15;;;5.60;;
27412;SDS011;14871;52.702;5.230;2022-08-19T00:18:19;7.30;;;5.95;;
27412;SDS011;14871;52.702;5.230;2022-08-19T00:20:45;8.30;;;5.80;;
27412;SDS011;14871;52.702;5.230;2022-08-19T00:23:11;7.03;;;5.75;;
27412;SDS011;14871;52.702;5.230;2022-08-19T00:25:36;9.93;;;5.32;;
27412;SDS011;14871;52.702;5.230;2022-08-19T00:28:02;8.05;;;6.00;;
27412;SDS011;14871;52.702;5.230;2022-08-19T00:30:29;8.25;;;5.88;;
27412;SDS011;14871;52.702;5.230;2022-08-19T00:32:55;7.65;;;6.22;;
27412;SDS011;14871;52.702;5.230;2022-08-19T00:35:21;9.38;;;5.90;;
27412;SDS011;14871;52.702;5.230;2022-08-19T00:37:48;8.68;;;5.97;;
27412;SDS011;14871;52.702;5.230;2022-08-19T00:40:14;11.80;;;7.07;;
27412;SDS011;14871;52.702;5.230;2022-08-19T00:42:40;11.27;;;7.55;;
27412;SDS011;14871;52.702;5.230;2022-08-19T00:45:19;11.82;;;7.07;;
27412;SDS011;14871;52.702;5.230;2022-08-19T00:47:46;11.15;;;8.02;;
27412;SDS011;14871;52.702;5.230;2022-08-19T00:50:12;11.07;;;7.38;;
27412;SDS011;14871;52.702;5.230;2022-08-19T00:52:42;10.88;;;8.25;;
27412;SDS011;14871;52.702;5.230;2022-08-19T00:55:13;13.85;;;9.50;;
27412;SDS011;14871;52.702;5.230;2022-08-19T00:58:02;10.85;;;9.70;;
27412;SDS011;14871;52.702;5.230;2022-08-19T01:00:33;14.77;;;10.02;;
27412;SDS011;14871;52.702;5.230;2022-08-19T01:03:02;11.55;;;9.38;;
27412;SDS011;14871;52.702;5.230;2022-08-19T01:05:35;16.20;;;10.13;;
27412;SDS011;14871;52.702;5.230;2022-08-19T01:08:02;12.85;;;9.48;;
27412;SDS011;14871;52.702;5.230;2022-08-19T01:10:31;14.30;;;9.38;;
27412;SDS011;14871;52.702;5.230;2022-08-19T01:13:02;15.18;;;10.10;;
27412;SDS011;14871;52.702;5.230;2022-08-19T01:15:30;15.57;;;10.02;;
27412;SDS011;14871;52.702;5.230;2022-08-19T01:18:00;14.13;;;9.88;;
27412;SDS011;14871;52.702;5.230;2022-08-19T01:20:30;14.82;;;10.25;;
27412;SDS011;14871;52.702;5.230;2022-08-19T01:22:57;9.65;;;8.57;;
27412;SDS011;14871;52.702;5.230;2022-08-19T01:25:44;12.45;;;9.10;;
27412;SDS011;14871;52.702;5.230;2022-08-19T01:28:16;14.05;;;8.95;;
27412;SDS011;14871;52.702;5.230;2022-08-19T01:30:46;11.43;;;8.85;;
27412;SDS011;14871;52.702;5.230;2022-08-19T01:33:13;12.65;;;8.73;;
27412;SDS011;14871;52.702;5.230;2022-08-19T01:35:39;11.32;;;9.38;;
27412;SDS011;14871;52.702;5.230;2022-08-19T01:38:07;12.00;;;9.07;;
27412;SDS011;14871;52.702;5.230;2022-08-19T01:40:38;11.13;;;8.60;;
27412;SDS011;14871;52.702;5.230;2022-08-19T01:43:05;9.40;;;8.40;;
27412;SDS011;14871;52.702;5.230;2022-08-19T01:45:31;12.30;;;9.45;;
27412;SDS011;14871;52.702;5.230;2022-08-19T01:47:58;12.88;;;9.70;;
27412;SDS011;14871;52.702;5.230;2022-08-19T01:50:25;13.00;;;9.23;;
27412;SDS011;14871;52.702;5.230;2022-08-19T01:52:51;13.48;;;9.80;;
27412;SDS011;14871;52.702;5.230;2022-08-19T01:55:18;13.82;;;10.27;;
27412;SDS011;14871;52.702;5.230;2022-08-19T01:57:49;10.52;;;9.27;;
27412;SDS011;14871;52.702;5.230;2022-08-19T02:00:20;11.65;;;10.18;;
27412;SDS011;14871;52.702;5.230;2022-08-19T02:02:48;10.98;;;9.80;;
27412;SDS011;14871;52.702;5.230;2022-08-19T02:05:14;14.30;;;9.30;;
27412;SDS011;14871;52.702;5.230;2022-08-19T02:07:43;15.88;;;10.40;;
27412;SDS011;14871;52.702;5.230;2022-08-19T02:10:11;12.35;;;10.57;;
27412;SDS011;14871;52.702;5.230;2022-08-19T02:12:38;11.73;;;10.60;;
27412;SDS011;14871;52.702;5.230;2022-08-19T02:15:04;15.48;;;10.98;;
27412;SDS011;14871;52.702;5.230;2022-08-19T02:17:31;14.27;;;10.68;;
27412;SDS011;14871;52.702;5.230;2022-08-19T02:19:57;14.23;;;10.30;;
27412;SDS011;14871;52.702;5.230;2022-08-19T02:22:23;12.65;;;9.80;;
27412;SDS011;14871;52.702;5.230;2022-08-19T02:24:50;13.52;;;11.45;;
27412;SDS011;14871;52.702;5.230;2022-08-19T02:27:19;14.55;;;11.95;;
27412;SDS011;14871;52.702;5.230;2022-08-19T02:29:47;14.43;;;11.52;;
27412;SDS011;14871;52.702;5.230;2022-08-19T02:32:14;12.85;;;10.77;;
27412;SDS011;14871;52.702;5.230;2022-08-19T02:34:40;16.20;;;11.30;;
27412;SDS011;14871;52.702;5.230;2022-08-19T02:37:05;13.02;;;11.43;;
27412;SDS011;14871;52.702;5.230;2022-08-19T02:39:51;14.43;;;11.48;;
27412;SDS011;14871;52.702;5.230;2022-08-19T02:42:17;15.05;;;12.27;;
27412;SDS011;14871;52.702;5.230;2022-08-19T02:44:42;15.48;;;12.30;;
27412;SDS011;14871;52.702;5.230;2022-08-19T02:47:09;16.35;;;12.60;;
27412;SDS011;14871;52.702;5.230;2022-08-19T02:49:35;15.13;;;12.60;;
27412;SDS011;14871;52.702;5.230;2022-08-19T02:52:00;16.95;;;12.73;;
27412;SDS011;14871;52.702;5.230;2022-08-19T02:54:26;17.85;;;13.07;;
27412;SDS011;14871;52.702;5.230;2022-08-19T02:56:52;16.70;;;12.80;;
27412;SDS011;14871;52.702;5.230;2022-08-19T02:59:18;17.77;;;13.07;;
27412;SDS011;14871;52.702;5.230;2022-08-19T03:01:44;15.98;;;13.95;;
27412;SDS011;14871;52.702;5.230;2022-08-19T03:04:12;18.20;;;13.98;;
27412;SDS011;14871;52.702;5.230;2022-08-19T03:06:39;17.30;;;14.20;;
27412;SDS011;14871;52.702;5.230;2022-08-19T03:09:06;15.57;;;13.65;;
27412;SDS011;14871;52.702;5.230;2022-08-19T03:11:32;16.30;;;14.60;;
27412;SDS011;14871;52.702;5.230;2022-08-19T03:13:58;16.65;;;13.50;;
27412;SDS011;14871;52.702;5.230;2022-08-19T03:16:25;15.98;;;13.85;;
27412;SDS011;14871;52.702;5.230;2022-08-19T03:18:53;19.77;;;14.10;;
27412;SDS011;14871;52.702;5.230;2022-08-19T03:21:22;16.58;;;14.02;;
27412;SDS011;14871;52.702;5.230;2022-08-19T03:23:49;18.13;;;13.57;;
27412;SDS011;14871;52.702;5.230;2022-08-19T03:26:18;18.05;;;15.25;;
27412;SDS011;14871;52.702;5.230;2022-08-19T03:28:44;16.92;;;14.98;;
27412;SDS011;14871;52.702;5.230;2022-08-19T03:31:14;17.35;;;15.25;;
27412;SDS011;14871;52.702;5.230;2022-08-19T03:33:42;20.38;;;14.73;;
27412;SDS011;14871;52.702;5.230;2022-08-19T03:36:09;18.27;;;15.98;;
27412;SDS011;14871;52.702;5.230;2022-08-19T03:38:41;19.60;;;17.02;;
27412;SDS011;14871;52.702;5.230;2022-08-19T03:41:12;21.45;;;17.00;;
27412;SDS011;14871;52.702;5.230;2022-08-19T03:43:46;23.20;;;16.73;;
27412;SDS011;14871;52.702;5.230;2022-08-19T03:46:13;19.63;;;17.52;;
27412;SDS011;14871;52.702;5.230;2022-08-19T03:48:41;19.77;;;16.48;;
27412;SDS011;14871;52.702;5.230;2022-08-19T03:51:14;24.45;;;19.67;;
27412;SDS011;14871;52.702;5.230;2022-08-19T03:53:51;21.42;;;17.40;;
27412;SDS011;14871;52.702;5.230;2022-08-19T03:56:18;20.38;;;17.52;;
27412;SDS011;14871;52.702;5.230;2022-08-19T03:58:44;20.90;;;18.30;;
27412;SDS011;14871;52.702;5.230;2022-08-19T04:01:12;24.00;;;18.70;;
27412;SDS011;14871;52.702;5.230;2022-08-19T04:03:42;21.50;;;18.95;;
27412;SDS011;14871;52.702;5.230;2022-08-19T04:06:11;21.23;;;18.27;;
27412;SDS011;14871;52.702;5.230;2022-08-19T04:08:40;24.33;;;19.45;;
27412;SDS011;14871;52.702;5.230;2022-08-19T04:11:11;23.10;;;20.10;;
27412;SDS011;14871;52.702;5.230;2022-08-19T04:13:38;24.27;;;21.27;;
27412;SDS011;14871;52.702;5.230;2022-08-19T04:16:05;23.13;;;20.15;;
27412;SDS011;14871;52.702;5.230;2022-08-19T04:18:32;26.10;;;20.73;;
27412;SDS011;14871;52.702;5.230;2022-08-19T04:20:58;27.85;;;21.17;;
27412;SDS011;14871;52.702;5.230;2022-08-19T04:23:24;26.80;;;22.05;;
27412;SDS011;14871;52.702;5.230;2022-08-19T04:25:50;23.80;;;21.00;;
27412;SDS011;14871;52.702;5.230;2022-08-19T04:28:16;26.55;;;21.75;;
27412;SDS011;14871;52.702;5.230;2022-08-19T04:30:46;28.05;;;22.92;;
27412;SDS011;14871;52.702;5.230;2022-08-19T04:33:14;25.38;;;22.15;;
27412;SDS011;14871;52.702;5.230;2022-08-19T04:35:42;28.20;;;23.00;;
27412;SDS011;14871;52.702;5.230;2022-08-19T04:38:09;27.55;;;22.08;;
27412;SDS011;14871;52.702;5.230;2022-08-19T04:40:43;31.80;;;23.95;;
27412;SDS011;14871;52.702;5.230;2022-08-19T04:43:29;27.17;;;23.27;;
27412;SDS011;14871;52.702;5.230;2022-08-19T04:45:56;28.17;;;23.38;;
27412;SDS011;14871;52.702;5.230;2022-08-19T04:48:22;26.77;;;23.33;;
27412;SDS011;14871;52.702;5.230;2022-08-19T04:50:54;28.65;;;24.73;;
27412;SDS011;14871;52.702;5.230;2022-08-19T04:53:25;28.98;;;24.50;;
27412;SDS011;14871;52.702;5.230;2022-08-19T04:55:53;29.88;;;24.52;;
27412;SDS011;14871;52.702;5.230;2022-08-19T04:58:24;28.65;;;23.58;;
27412;SDS011;14871;52.702;5.230;2022-08-19T05:00:51;29.23;;;23.70;;
27412;SDS011;14871;52.702;5.230;2022-08-19T05:03:17;28.95;;;25.27;;
27412;SDS011;14871;52.702;5.230;2022-08-19T05:05:44;35.67;;;25.55;;
27412;SDS011;14871;52.702;5.230;2022-08-19T05:08:13;31.35;;;25.23;;
27412;SDS011;14871;52.702;5.230;2022-08-19T05:10:44;29.63;;;25.63;;
27412;SDS011;14871;52.702;5.230;2022-08-19T05:13:12;31.35;;;24.60;;
27412;SDS011;14871;52.702;5.230;2022-08-19T05:15:37;31.65;;;25.35;;
27412;SDS011;14871;52.702;5.230;2022-08-19T05:18:03;32.35;;;25.40;;
27412;SDS011;14871;52.702;5.230;2022-08-19T05:20:47;29.83;;;25.58;;
27412;SDS011;14871;52.702;5.230;2022-08-19T05:23:31;34.85;;;26.70;;
27412;SDS011;14871;52.702;5.230;2022-08-19T05:25:57;30.67;;;25.75;;
27412;SDS011;14871;52.702;5.230;2022-08-19T05:28:22;34.00;;;26.42;;
27412;SDS011;14871;52.702;5.230;2022-08-19T05:30:48;34.50;;;27.42;;
27412;SDS011;14871;52.702;5.230;2022-08-19T05:33:15;36.63;;;26.05;;
27412;SDS011;14871;52.702;5.230;2022-08-19T05:35:41;33.72;;;26.05;;
27412;SDS011;14871;52.702;5.230;2022-08-19T05:38:09;33.60;;;27.70;;
27412;SDS011;14871;52.702;5.230;2022-08-19T05:40:36;40.75;;;29.17;;
27412;SDS011;14871;52.702;5.230;2022-08-19T05:43:04;35.65;;;28.10;;
27412;SDS011;14871;52.702;5.230;2022-08-19T05:45:30;41.22;;;31.00;;
27412;SDS011;14871;52.702;5.230;2022-08-19T05:47:56;40.42;;;31.35;;
27412;SDS011;14871;52.702;5.230;2022-08-19T05:50:23;46.15;;;33.15;;
27412;SDS011;14871;52.702;5.230;2022-08-19T05:52:51;45.53;;;34.15;;
27412;SDS011;14871;52.702;5.230;2022-08-19T05:55:17;46.60;;;34.15;;
27412;SDS011;14871;52.702;5.230;2022-08-19T05:57:45;47.75;;;34.83;;
27412;SDS011;14871;52.702;5.230;2022-08-19T06:00:11;48.70;;;35.42;;
27412;SDS011;14871;52.702;5.230;2022-08-19T06:02:38;51.50;;;35.65;;
27412;SDS011;14871;52.702;5.230;2022-08-19T06:05:04;45.25;;;35.97;;
27412;SDS011;14871;52.702;5.230;2022-08-19T06:07:33;49.72;;;34.67;;
27412;SDS011;14871;52.702;5.230;2022-08-19T06:10:00;44.60;;;34.90;;
27412;SDS011;14871;52.702;5.230;2022-08-19T06:12:26;48.90;;;34.38;;
27412;SDS011;14871;52.702;5.230;2022-08-19T06:14:59;47.80;;;35.42;;
27412;SDS011;14871;52.702;5.230;2022-08-19T06:17:25;50.72;;;35.97;;
27412;SDS011;14871;52.702;5.230;2022-08-19T06:19:52;47.47;;;34.55;;
27412;SDS011;14871;52.702;5.230;2022-08-19T06:22:17;55.15;;;34.85;;
27412;SDS011;14871;52.702;5.230;2022-08-19T06:24:43;52.00;;;34.55;;
27412;SDS011;14871;52.702;5.230;2022-08-19T06:27:08;48.45;;;33.72;;
27412;SDS011;14871;52.702;5.230;2022-08-19T06:29:34;52.13;;;34.97;;
27412;SDS011;14871;52.702;5.230;2022-08-19T06:32:01;45.03;;;32.92;;
27412;SDS011;14871;52.702;5.230;2022-08-19T06:34:29;45.28;;;32.58;;
27412;SDS011;14871;52.702;5.230;2022-08-19T06:36:59;48.58;;;31.48;;
27412;SDS011;14871;52.702;5.230;2022-08-19T06:39:29;49.05;;;30.83;;
27412;SDS011;14871;52.702;5.230;2022-08-19T06:41:59;44.85;;;30.17;;
27412;SDS011;14871;52.702;5.230;2022-08-19T06:44:28;41.83;;;29.45;;
27412;SDS011;14871;52.702;5.230;2022-08-19T06:47:00;42.55;;;29.48;;
27412;SDS011;14871;52.702;5.230;2022-08-19T06:49:30;43.85;;;28.15;;
27412;SDS011;14871;52.702;5.230;2022-08-19T06:51:56;48.28;;;29.50;;
27412;SDS011;14871;52.702;5.230;2022-08-19T06:54:24;48.08;;;29.02;;
27412;SDS011;14871;52.702;5.230;2022-08-19T06:56:51;40.45;;;27.65;;
27412;SDS011;14871;52.702;5.230;2022-08-19T06:59:21;38.00;;;26.42;;
27412;SDS011;14871;52.702;5.230;2022-08-19T07:01:52;39.67;;;27.00;;
27412;SDS011;14871;52.702;5.230;2022-08-19T07:04:20;37.10;;;28.17;;
27412;SDS011;14871;52.702;5.230;2022-08-19T07:06:48;42.70;;;27.17;;
27412;SDS011;14871;52.702;5.230;2022-08-19T07:09:15;40.65;;;28.05;;
27412;SDS011;14871;52.702;5.230;2022-08-19T07:11:46;42.65;;;27.48;;
27412;SDS011;14871;52.702;5.230;2022-08-19T07:14:19;39.28;;;27.08;;
27412;SDS011;14871;52.702;5.230;2022-08-19T07:16:47;39.67;;;28.25;;
27412;SDS011;14871;52.702;5.230;2022-08-19T07:19:15;43.50;;;26.65;;
27412;SDS011;14871;52.702;5.230;2022-08-19T07:21:42;43.60;;;27.65;;
27412;SDS011;14871;52.702;5.230;2022-08-19T07:24:08;42.67;;;27.60;;
27412;SDS011;14871;52.702;5.230;2022-08-19T07:26:37;37.55;;;27.17;;
27412;SDS011;14871;52.702;5.230;2022-08-19T07:29:05;42.95;;;27.70;;
27412;SDS011;14871;52.702;5.230;2022-08-19T07:31:31;41.42;;;27.50;;
27412;SDS011;14871;52.702;5.230;2022-08-19T07:34:01;44.13;;;27.58;;
27412;SDS011;14871;52.702;5.230;2022-08-19T07:36:32;46.63;;;28.25;;
27412;SDS011;14871;52.702;5.230;2022-08-19T07:39:00;39.17;;;26.60;;
27412;SDS011;14871;52.702;5.230;2022-08-19T07:41:29;40.42;;;26.83;;
27412;SDS011;14871;52.702;5.230;2022-08-19T07:43:57;39.65;;;28.17;;
27412;SDS011;14871;52.702;5.230;2022-08-19T07:46:28;37.55;;;28.17;;
27412;SDS011;14871;52.702;5.230;2022-08-19T07:48:58;41.55;;;28.85;;
27412;SDS011;14871;52.702;5.230;2022-08-19T07:51:25;45.30;;;29.63;;
27412;SDS011;14871;52.702;5.230;2022-08-19T07:53:52;41.03;;;28.90;;
27412;SDS011;14871;52.702;5.230;2022-08-19T07:56:18;39.05;;;28.63;;
27412;SDS011;14871;52.702;5.230;2022-08-19T07:58:45;37.45;;;27.70;;
27412;SDS011;14871;52.702;5.230;2022-08-19T08:01:14;36.30;;;25.98;;
27412;SDS011;14871;52.702;5.230;2022-08-19T08:03:42;39.60;;;25.42;;
27412;SDS011;14871;52.702;5.230;2022-08-19T08:06:27;33.08;;;24.10;;
27412;SDS011;14871;52.702;5.230;2022-08-19T08:09:13;29.90;;;21.53;;
27412;SDS011;14871;52.702;5.230;2022-08-19T08:11:53;27.40;;;21.67;;
27412;SDS011;14871;52.702;5.230;2022-08-19T08:14:26;30.33;;;21.13;;
27412;SDS011;14871;52.702;5.230;2022-08-19T08:16:57;32.13;;;20.35;;
27412;SDS011;14871;52.702;5.230;2022-08-19T08:19:24;31.27;;;18.92;;
27412;SDS011;14871;52.702;5.230;2022-08-19T08:21:51;27.92;;;19.17;;
27412;SDS011;14871;52.702;5.230;2022-08-19T08:24:21;23.92;;;17.23;;
27412;SDS011;14871;52.702;5.230;2022-08-19T08:26:47;28.70;;;17.20;;
27412;SDS011;14871;52.702;5.230;2022-08-19T08:29:13;26.60;;;15.80;;
27412;SDS011;14871;52.702;5.230;2022-08-19T08:31:41;23.23;;;17.05;;
27412;SDS011;14871;52.702;5.230;2022-08-19T08:34:10;23.77;;;16.77;;
27412;SDS011;14871;52.702;5.230;2022-08-19T08:36:37;24.65;;;17.17;;
27412;SDS011;14871;52.702;5.230;2022-08-19T08:39:10;25.38;;;16.80;;
27412;SDS011;14871;52.702;5.230;2022-08-19T08:41:43;27.08;;;16.75;;
27412;SDS011;14871;52.702;5.230;2022-08-19T08:44:19;19.75;;;16.10;;
27412;SDS011;14871;52.702;5.230;2022-08-19T08:46:58;29.33;;;16.73;;
27412;SDS011;14871;52.702;5.230;2022-08-19T08:52:06;27.05;;;16.83;;
27412;SDS011;14871;52.702;5.230;2022-08-19T08:54:43;24.27;;;17.17;;
27412;SDS011;14871;52.702;5.230;2022-08-19T08:57:17;23.10;;;16.63;;
27412;SDS011;14871;52.702;5.230;2022-08-19T08:59:48;29.80;;;17.80;;
27412;SDS011;14871;52.702;5.230;2022-08-19T09:02:17;21.90;;;16.92;;
27412;SDS011;14871;52.702;5.230;2022-08-19T09:04:43;22.80;;;15.05;;
27412;SDS011;14871;52.702;5.230;2022-08-19T09:09:42;22.85;;;14.77;;
27412;SDS011;14871;52.702;5.230;2022-08-19T09:12:15;20.77;;;12.77;;
27412;SDS011;14871;52.702;5.230;2022-08-19T09:14:58;18.50;;;14.05;;
27412;SDS011;14871;52.702;5.230;2022-08-19T09:17:28;16.38;;;12.90;;
27412;SDS011;14871;52.702;5.230;2022-08-19T09:22:35;15.45;;;11.43;;
27412;SDS011;14871;52.702;5.230;2022-08-19T09:25:02;14.43;;;11.15;;
27412;SDS011;14871;52.702;5.230;2022-08-19T09:27:29;16.73;;;11.45;;
27412;SDS011;14871;52.702;5.230;2022-08-19T09:29:56;19.50;;;12.52;;
27412;SDS011;14871;52.702;5.230;2022-08-19T09:32:22;17.80;;;10.98;;
27412;SDS011;14871;52.702;5.230;2022-08-19T09:34:49;18.08;;;10.68;;
27412;SDS011;14871;52.702;5.230;2022-08-19T09:37:14;15.32;;;10.45;;
27412;SDS011;14871;52.702;5.230;2022-08-19T09:39:40;17.80;;;11.13;;
27412;SDS011;14871;52.702;5.230;2022-08-19T09:42:07;15.15;;;11.88;;
27412;SDS011;14871;52.702;5.230;2022-08-19T09:44:39;17.23;;;11.38;;
27412;SDS011;14871;52.702;5.230;2022-08-19T09:47:05;13.07;;;10.30;;
27412;SDS011;14871;52.702;5.230;2022-08-19T09:49:32;16.35;;;10.98;;
27412;SDS011;14871;52.702;5.230;2022-08-19T09:51:58;12.70;;;10.38;;
27412;SDS011;14871;52.702;5.230;2022-08-19T09:54:24;16.25;;;10.68;;
27412;SDS011;14871;52.702;5.230;2022-08-19T09:56:50;14.98;;;11.30;;
27412;SDS011;14871;52.702;5.230;2022-08-19T09:59:17;13.60;;;11.18;;
27412;SDS011;14871;52.702;5.230;2022-08-19T10:01:43;13.32;;;11.32;;
27412;SDS011;14871;52.702;5.230;2022-08-19T10:04:08;18.25;;;13.43;;
27412;SDS011;14871;52.702;5.230;2022-08-19T10:06:35;15.73;;;11.82;;
27412;SDS011;14871;52.702;5.230;2022-08-19T10:09:03;15.43;;;10.95;;
27412;SDS011;14871;52.702;5.230;2022-08-19T10:11:31;16.27;;;12.25;;
27412;SDS011;14871;52.702;5.230;2022-08-19T10:13:57;13.90;;;10.98;;
27412;SDS011;14871;52.702;5.230;2022-08-19T10:16:24;14.80;;;11.05;;
27412;SDS011;14871;52.702;5.230;2022-08-19T10:18:50;15.65;;;11.32;;
27412;SDS011;14871;52.702;5.230;2022-08-19T10:21:21;15.48;;;11.48;;
27412;SDS011;14871;52.702;5.230;2022-08-19T10:23:50;15.88;;;11.35;;
27412;SDS011;14871;52.702;5.230;2022-08-19T10:26:19;14.52;;;11.60;;
27412;SDS011;14871;52.702;5.230;2022-08-19T10:28:46;15.38;;;11.30;;
27412;SDS011;14871;52.702;5.230;2022-08-19T10:31:16;14.30;;;10.98;;
27412;SDS011;14871;52.702;5.230;2022-08-19T10:33:44;15.50;;;10.73;;
27412;SDS011;14871;52.702;5.230;2022-08-19T10:36:17;16.48;;;11.50;;
27412;SDS011;14871;52.702;5.230;2022-08-19T10:38:45;13.10;;;10.60;;
27412;SDS011;14871;52.702;5.230;2022-08-19T10:41:20;14.35;;;10.70;;
27412;SDS011;14871;52.702;5.230;2022-08-19T10:43:49;13.55;;;10.32;;
27412;SDS011;14871;52.702;5.230;2022-08-19T10:46:17;15.95;;;10.55;;
27412;SDS011;14871;52.702;5.230;2022-08-19T10:48:43;13.70;;;10.00;;
27412;SDS011;14871;52.702;5.230;2022-08-19T10:51:10;18.33;;;12.50;;
27412;SDS011;14871;52.702;5.230;2022-08-19T10:53:56;19.60;;;14.32;;
27412;SDS011;14871;52.702;5.230;2022-08-19T10:56:22;16.88;;;13.95;;
27412;SDS011;14871;52.702;5.230;2022-08-19T10:59:07;18.27;;;14.77;;
27412;SDS011;14871;52.702;5.230;2022-08-19T11:01:33;23.05;;;13.95;;
27412;SDS011;14871;52.702;5.230;2022-08-19T11:04:00;15.07;;;12.60;;
27412;SDS011;14871;52.702;5.230;2022-08-19T11:06:27;17.02;;;12.85;;
27412;SDS011;14871;52.702;5.230;2022-08-19T11:08:54;19.73;;;15.50;;
27412;SDS011;14871;52.702;5.230;2022-08-19T11:11:20;21.25;;;16.95;;
27412;SDS011;14871;52.702;5.230;2022-08-19T11:13:47;18.30;;;15.68;;
27412;SDS011;14871;52.702;5.230;2022-08-19T11:16:17;17.25;;;14.57;;
27412;SDS011;14871;52.702;5.230;2022-08-19T11:18:49;20.23;;;14.45;;
27412;SDS011;14871;52.702;5.230;2022-08-19T11:21:20;16.95;;;12.93;;
27412;SDS011;14871;52.702;5.230;2022-08-19T11:23:49;15.05;;;12.60;;
27412;SDS011;14871;52.702;5.230;2022-08-19T11:26:17;17.00;;;14.65;;
27412;SDS011;14871;52.702;5.230;2022-08-19T11:28:43;18.27;;;14.13;;
27412;SDS011;14871;52.702;5.230;2022-08-19T11:31:11;14.80;;;12.65;;
27412;SDS011;14871;52.702;5.230;2022-08-19T11:33:41;16.63;;;11.95;;
27412;SDS011;14871;52.702;5.230;2022-08-19T11:36:07;14.30;;;11.13;;
27412;SDS011;14871;52.702;5.230;2022-08-19T11:38:34;15.13;;;11.55;;
27412;SDS011;14871;52.702;5.230;2022-08-19T11:41:02;16.13;;;12.40;;
27412;SDS011;14871;52.702;5.230;2022-08-19T11:43:30;13.73;;;11.35;;
27412;SDS011;14871;52.702;5.230;2022-08-19T11:45:56;13.68;;;11.10;;
27412;SDS011;14871;52.702;5.230;2022-08-19T11:48:23;16.42;;;13.88;;
27412;SDS011;14871;52.702;5.230;2022-08-19T11:50:50;18.60;;;13.52;;
27412;SDS011;14871;52.702;5.230;2022-08-19T11:53:21;15.20;;;12.68;;
27412;SDS011;14871;52.702;5.230;2022-08-19T11:55:47;14.88;;;12.75;;
27412;SDS011;14871;52.702;5.230;2022-08-19T11:58:14;16.90;;;14.13;;
27412;SDS011;14871;52.702;5.230;2022-08-19T12:00:41;17.17;;;13.18;;
27412;SDS011;14871;52.702;5.230;2022-08-19T12:03:09;15.73;;;13.07;;
27412;SDS011;14871;52.702;5.230;2022-08-19T12:05:37;13.93;;;12.43;;
27412;SDS011;14871;52.702;5.230;2022-08-19T12:08:03;15.57;;;14.00;;
27412;SDS011;14871;52.702;5.230;2022-08-19T12:10:29;17.08;;;14.15;;
27412;SDS011;14871;52.702;5.230;2022-08-19T12:12:54;16.25;;;14.20;;
27412;SDS011;14871;52.702;5.230;2022-08-19T12:15:20;20.63;;;15.10;;
27412;SDS011;14871;52.702;5.230;2022-08-19T12:17:46;19.55;;;15.57;;
27412;SDS011;14871;52.702;5.230;2022-08-19T12:20:12;14.90;;;13.40;;
27412;SDS011;14871;52.702;5.230;2022-08-19T12:22:40;15.23;;;12.43;;
27412;SDS011;14871;52.702;5.230;2022-08-19T12:25:09;16.33;;;12.45;;
27412;SDS011;14871;52.702;5.230;2022-08-19T12:27:36;12.70;;;11.40;;
27412;SDS011;14871;52.702;5.230;2022-08-19T12:30:02;15.10;;;10.45;;
27412;SDS011;14871;52.702;5.230;2022-08-19T12:32:29;14.32;;;11.25;;
27412;SDS011;14871;52.702;5.230;2022-08-19T12:34:54;14.95;;;11.50;;
27412;SDS011;14871;52.702;5.230;2022-08-19T12:37:20;17.38;;;12.20;;
27412;SDS011;14871;52.702;5.230;2022-08-19T12:39:46;16.30;;;13.30;;
27412;SDS011;14871;52.702;5.230;2022-08-19T12:42:12;13.27;;;11.93;;
27412;SDS011;14871;52.702;5.230;2022-08-19T12:44:39;11.95;;;10.73;;
27412;SDS011;14871;52.702;5.230;2022-08-19T12:47:06;11.45;;;9.70;;
27412;SDS011;14871;52.702;5.230;2022-08-19T12:49:33;12.10;;;7.72;;
27412;SDS011;14871;52.702;5.230;2022-08-19T12:52:02;9.70;;;6.22;;
27412;SDS011;14871;52.702;5.230;2022-08-19T12:54:29;9.98;;;6.68;;
27412;SDS011;14871;52.702;5.230;2022-08-19T12:56:55;7.53;;;5.85;;
27412;SDS011;14871;52.702;5.230;2022-08-19T12:59:21;14.30;;;6.97;;
27412;SDS011;14871;52.702;5.230;2022-08-19T13:01:47;8.98;;;6.10;;
27412;SDS011;14871;52.702;5.230;2022-08-19T13:04:13;7.97;;;7.13;;
27412;SDS011;14871;52.702;5.230;2022-08-19T13:06:40;8.82;;;5.97;;
27412;SDS011;14871;52.702;5.230;2022-08-19T13:09:06;8.50;;;6.03;;
27412;SDS011;14871;52.702;5.230;2022-08-19T13:11:31;7.38;;;4.80;;
27412;SDS011;14871;52.702;5.230;2022-08-19T13:13:58;4.53;;;4.13;;
27412;SDS011;14871;52.702;5.230;2022-08-19T13:16:24;7.93;;;5.05;;
27412;SDS011;14871;52.702;5.230;2022-08-19T13:18:52;8.20;;;5.32;;
27412;SDS011;14871;52.702;5.230;2022-08-19T13:21:19;6.90;;;4.60;;
27412;SDS011;14871;52.702;5.230;2022-08-19T13:23:47;7.50;;;5.38;;
27412;SDS011;14871;52.702;5.230;2022-08-19T13:26:14;4.28;;;3.88;;
27412;SDS011;14871;52.702;5.230;2022-08-19T13:28:40;9.57;;;3.08;;
27412;SDS011;14871;52.702;5.230;2022-08-19T13:31:26;5.10;;;3.70;;
27412;SDS011;14871;52.702;5.230;2022-08-19T13:34:11;3.90;;;3.30;;
27412;SDS011;14871;52.702;5.230;2022-08-19T13:36:37;4.00;;;3.58;;
27412;SDS011;14871;52.702;5.230;2022-08-19T13:39:05;3.20;;;2.90;;
27412;SDS011;14871;52.702;5.230;2022-08-19T13:41:33;4.50;;;2.85;;
27412;SDS011;14871;52.702;5.230;2022-08-19T13:44:00;4.38;;;3.25;;
27412;SDS011;14871;52.702;5.230;2022-08-19T13:46:26;4.93;;;2.47;;
27412;SDS011;14871;52.702;5.230;2022-08-19T13:48:55;5.70;;;3.03;;
27412;SDS011;14871;52.702;5.230;2022-08-19T13:51:21;4.53;;;2.95;;
27412;SDS011;14871;52.702;5.230;2022-08-19T13:53:47;4.00;;;3.08;;
27412;SDS011;14871;52.702;5.230;2022-08-19T13:56:14;3.47;;;2.75;;
27412;SDS011;14871;52.702;5.230;2022-08-19T13:58:42;5.63;;;3.05;;
27412;SDS011;14871;52.702;5.230;2022-08-19T14:01:08;5.07;;;3.17;;
27412;SDS011;14871;52.702;5.230;2022-08-19T14:03:34;4.03;;;3.40;;
27412;SDS011;14871;52.702;5.230;2022-08-19T14:06:00;3.97;;;3.05;;
27412;SDS011;14871;52.702;5.230;2022-08-19T14:08:26;3.22;;;2.58;;
27412;SDS011;14871;52.702;5.230;2022-08-19T14:10:53;4.32;;;2.22;;
27412;SDS011;14871;52.702;5.230;2022-08-19T14:13:20;4.80;;;2.65;;
27412;SDS011;14871;52.702;5.230;2022-08-19T14:15:48;3.53;;;2.10;;
27412;SDS011;14871;52.702;5.230;2022-08-19T14:18:14;4.50;;;2.30;;
27412;SDS011;14871;52.702;5.230;2022-08-19T14:20:40;3.20;;;2.40;;
27412;SDS011;14871;52.702;5.230;2022-08-19T14:23:06;5.03;;;2.13;;
27412;SDS011;14871;52.702;5.230;2022-08-19T14:25:32;3.97;;;1.92;;
27412;SDS011;14871;52.702;5.230;2022-08-19T14:27:59;3.58;;;2.20;;
27412;SDS011;14871;52.702;5.230;2022-08-19T14:30:26;3.97;;;2.38;;
27412;SDS011;14871;52.702;5.230;2022-08-19T14:32:54;2.85;;;2.15;;
27412;SDS011;14871;52.702;5.230;2022-08-19T14:35:21;3.30;;;2.20;;
27412;SDS011;14871;52.702;5.230;2022-08-19T14:37:47;5.05;;;2.25;;
27412;SDS011;14871;52.702;5.230;2022-08-19T14:40:15;5.55;;;2.08;;